createdAt,value
2023-03-06T00:03:17.227Z,99282.72
2023-03-06T00:08:44.798Z,99281.97
2023-03-06T00:14:12.635Z,99279.94
2023-03-06T00:19:40.796Z,99276.22
2023-03-06T00:25:13.306Z,99279.47
2023-03-06T00:30:40.969Z,99286.22
2023-03-06T00:36:08.711Z,99274.13
2023-03-06T00:41:35.835Z,99270.41
2023-03-06T00:47:04.095Z,99261.97
2023-03-06T00:52:32.518Z,99259.78
2023-03-06T00:57:59.956Z,99243.00
2023-03-06T01:03:28.949Z,99243.47
2023-03-06T01:08:57.533Z,99236.97
2023-03-06T01:14:26.381Z,99232.97
2023-03-06T01:19:53.806Z,99218.50
2023-03-06T01:25:20.785Z,99217.91
2023-03-06T01:30:50.757Z,99214.03
2023-03-06T01:36:19.170Z,99198.44
2023-03-06T01:41:47.183Z,99193.34
2023-03-06T01:47:14.631Z,99203.31
2023-03-06T01:52:56.815Z,99199.03
2023-03-06T01:58:24.246Z,99195.13
2023-03-06T02:03:51.971Z,99185.91
2023-03-06T02:09:19.307Z,99181.28
2023-03-06T02:14:48.346Z,99179.34
2023-03-06T02:20:26.894Z,99177.41
2023-03-06T02:25:54.681Z,99161.31
2023-03-06T02:31:25.442Z,99163.75
2023-03-06T02:36:57.613Z,99151.41
2023-03-06T02:42:26.765Z,99144.38
2023-03-06T02:47:55.485Z,99133.19
2023-03-06T02:53:23.459Z,99133.25
2023-03-06T02:58:52.313Z,99122.06
2023-03-06T03:04:21.059Z,99115.50
2023-03-06T03:09:49.209Z,99109.69
2023-03-06T03:15:17.168Z,99105.25
2023-03-06T03:20:44.801Z,99092.75
2023-03-06T03:26:14.971Z,99082.47
2023-03-06T03:31:46.801Z,99084.72
2023-03-06T03:37:14.417Z,99083.44
2023-03-06T03:42:43.145Z,99069.06
2023-03-06T03:48:11.104Z,99073.78
2023-03-06T03:53:40.161Z,99065.75
2023-03-06T03:59:09.309Z,99049.72
2023-03-06T04:04:44.032Z,99055.97
2023-03-06T04:10:13.341Z,99040.84
2023-03-06T04:15:41.290Z,99038.88
2023-03-06T04:21:09.391Z,99030.91
2023-03-06T04:26:37.225Z,99027.56
2023-03-06T04:32:05.856Z,99023.63
2023-03-06T04:37:33.334Z,99017.19
2023-03-06T04:43:01.778Z,99017.97
2023-03-06T04:48:29.259Z,99016.94
2023-03-06T04:53:56.654Z,99007.75
2023-03-06T04:59:24.394Z,99010.16
2023-03-06T05:04:53.748Z,99000.91
2023-03-06T05:10:21.680Z,98997.88
2023-03-06T05:15:49.665Z,98995.59
2023-03-06T05:21:18.118Z,98997.81
2023-03-06T05:26:45.375Z,98997.53
2023-03-06T05:32:12.577Z,99002.59
2023-03-06T05:37:40.214Z,98997.75
2023-03-06T05:43:08.467Z,98992.94
2023-03-06T05:48:40.597Z,98993.16
2023-03-06T05:54:07.310Z,98990.28
2023-03-06T05:59:34.616Z,98985.47
2023-03-06T06:05:04.454Z,98979.56
2023-03-06T06:10:32.631Z,98984.34
2023-03-06T06:15:59.514Z,98991.91
2023-03-06T06:21:26.696Z,98991.34
2023-03-06T06:26:57.660Z,98999.22
2023-03-06T06:32:24.718Z,99003.34
2023-03-06T06:37:53.053Z,99009.00
2023-03-06T06:43:20.656Z,99009.44
2023-03-06T06:48:55.139Z,99003.69
2023-03-06T06:54:22.646Z,99013.75
2023-03-06T06:59:52.433Z,99003.25
2023-03-06T07:05:21.786Z,99006.03
2023-03-06T07:10:51.297Z,99002.38
2023-03-06T07:16:18.835Z,99004.72
2023-03-06T07:21:46.706Z,98998.72
2023-03-06T07:27:13.805Z,99003.72
2023-03-06T07:32:43.395Z,99008.97
2023-03-06T07:38:11.657Z,99014.91
2023-03-06T07:43:43.638Z,99019.44
2023-03-06T07:49:13.000Z,99017.38
2023-03-06T07:54:41.061Z,99011.53
2023-03-06T08:00:15.128Z,99010.81
2023-03-06T08:05:44.568Z,99011.34
2023-03-06T08:11:13.532Z,99007.13
2023-03-06T08:16:41.121Z,99006.97
2023-03-06T08:22:08.788Z,99010.78
2023-03-06T08:27:36.752Z,99015.75
2023-03-06T08:33:03.832Z,99016.78
2023-03-06T08:38:32.135Z,99015.34
2023-03-06T08:44:00.657Z,99010.72
2023-03-06T08:49:28.180Z,99022.00
2023-03-06T08:54:55.899Z,99020.09
2023-03-06T09:00:23.188Z,99019.78
2023-03-06T09:05:52.689Z,99009.03
2023-03-06T09:11:21.429Z,99013.28
2023-03-06T09:16:49.310Z,99018.22
2023-03-06T09:22:17.116Z,99012.03
2023-03-06T09:27:43.812Z,99002.28
2023-03-06T09:33:11.369Z,99010.38
2023-03-06T09:38:39.041Z,99003.88
2023-03-06T09:44:26.245Z,99005.28
2023-03-06T09:50:04.978Z,98999.09
2023-03-06T09:55:35.945Z,98999.47
2023-03-06T10:01:35.133Z,98995.13
2023-03-06T10:07:13.549Z,98994.47
2023-03-06T10:19:21.308Z,98984.88
2023-03-06T10:24:57.924Z,98976.03
2023-03-06T10:30:39.933Z,98969.53
2023-03-06T10:36:10.878Z,98973.41
2023-03-06T10:41:38.988Z,98970.28
2023-03-06T10:47:31.299Z,98961.31
2023-03-06T10:53:20.260Z,98955.41
2023-03-06T10:58:47.451Z,98964.41
2023-03-06T11:04:28.982Z,98949.16
2023-03-06T11:09:59.618Z,98940.81
2023-03-06T11:15:29.778Z,98942.16
2023-03-06T11:20:58.052Z,98931.25
2023-03-06T11:26:34.168Z,98919.97
2023-03-06T11:32:28.135Z,98921.06
2023-03-06T11:38:01.179Z,98923.56
2023-03-06T11:43:49.720Z,98925.41
2023-03-06T11:49:24.779Z,98919.84
2023-03-06T11:54:56.544Z,98911.88
2023-03-06T12:01:13.416Z,98909.66
2023-03-06T12:06:46.447Z,98905.97
2023-03-06T12:12:28.337Z,98896.78
2023-03-06T12:18:10.596Z,98885.63
2023-03-06T12:23:55.753Z,98866.78
2023-03-06T12:29:42.203Z,98874.09
2023-03-06T12:35:09.455Z,98880.66
2023-03-06T12:40:45.411Z,98875.56
2023-03-06T12:46:22.590Z,98864.19
2023-03-06T12:51:49.869Z,98857.31
2023-03-06T12:57:17.630Z,98862.81
2023-03-06T13:02:55.689Z,98848.47
2023-03-06T13:08:33.495Z,98849.53
2023-03-06T13:14:00.757Z,98845.44
2023-03-06T13:19:28.052Z,98844.19
2023-03-06T13:25:17.471Z,98838.69
2023-03-06T13:30:46.346Z,98850.50
2023-03-06T13:36:34.258Z,98840.56
2023-03-06T13:42:01.915Z,98843.09
2023-03-06T13:47:46.092Z,98833.06
2023-03-06T13:53:41.019Z,98851.06
2023-03-06T13:59:39.415Z,98852.97
2023-03-06T14:05:14.964Z,98853.63
2023-03-06T14:10:45.182Z,98846.66
2023-03-06T14:16:32.606Z,98840.69
2023-03-06T14:22:04.696Z,98837.72
2023-03-06T14:27:39.907Z,98826.84
2023-03-06T14:33:11.565Z,98831.56
2023-03-06T14:38:48.328Z,98829.16
2023-03-06T14:44:20.773Z,98827.59
2023-03-06T14:49:48.943Z,98822.63
2023-03-06T14:55:20.093Z,98818.53
2023-03-06T15:00:52.329Z,98813.59
2023-03-06T15:06:42.190Z,98814.28
2023-03-06T15:12:20.082Z,98802.34
2023-03-06T15:17:49.587Z,98805.97
2023-03-06T15:23:25.796Z,98803.75
2023-03-06T15:29:23.669Z,98805.03
2023-03-06T15:35:26.086Z,98809.06
2023-03-06T15:41:01.820Z,98809.50
2023-03-06T15:46:29.912Z,98809.03
2023-03-06T15:51:57.627Z,98820.81
2023-03-06T15:57:29.353Z,98821.50
2023-03-06T16:02:59.239Z,98821.91
2023-03-06T16:08:32.020Z,98820.00
2023-03-06T16:14:01.675Z,98816.44
2023-03-06T16:19:29.305Z,98819.78
2023-03-06T16:24:57.328Z,98807.94
2023-03-06T16:30:31.311Z,98821.31
2023-03-06T16:35:59.408Z,98817.69
2023-03-06T16:41:27.844Z,98825.09
2023-03-06T16:46:56.104Z,98826.91
2023-03-06T16:52:24.524Z,98835.47
2023-03-06T16:57:56.738Z,98831.56
2023-03-06T17:03:26.790Z,98841.41
2023-03-06T17:09:01.222Z,98846.75
2023-03-06T17:14:35.004Z,98848.97
2023-03-06T17:20:05.946Z,98851.91
2023-03-06T17:25:35.273Z,98851.00
2023-03-06T17:31:14.227Z,98851.28
2023-03-06T17:36:48.581Z,98844.63
2023-03-06T17:42:18.166Z,98842.56
2023-03-06T17:47:48.967Z,98843.34
2023-03-06T17:53:21.588Z,98856.63
2023-03-06T17:58:50.696Z,98854.41
2023-03-06T18:04:19.621Z,98849.56
2023-03-06T18:09:51.083Z,98856.31
2023-03-06T18:15:19.975Z,98860.94
2023-03-06T18:20:47.706Z,98852.53
2023-03-06T18:26:24.564Z,98860.72
2023-03-06T18:31:54.179Z,98863.19
2023-03-06T18:37:27.040Z,98869.47
2023-03-06T18:42:57.105Z,98878.41
2023-03-06T18:48:26.195Z,98869.97
2023-03-06T18:53:53.714Z,98876.38
2023-03-06T18:59:21.529Z,98871.22
2023-03-06T19:04:48.705Z,98877.63
2023-03-06T19:10:16.904Z,98875.53
2023-03-06T19:15:46.646Z,98875.09
2023-03-06T19:21:16.323Z,98881.16
2023-03-06T19:26:43.755Z,98875.97
2023-03-06T19:32:11.971Z,98880.44
2023-03-06T19:37:39.827Z,98881.16
2023-03-06T19:43:08.173Z,98880.13
2023-03-06T19:48:35.830Z,98879.81
2023-03-06T19:54:03.964Z,98879.50
2023-03-06T19:59:31.777Z,98891.09
2023-03-06T20:04:59.609Z,98888.00
2023-03-06T20:10:27.651Z,98897.06
2023-03-06T20:15:54.548Z,98905.06
2023-03-06T20:21:25.136Z,98909.44
2023-03-06T20:26:58.593Z,98899.53
2023-03-06T20:32:25.921Z,98906.03
2023-03-06T20:37:54.024Z,98908.16
2023-03-06T20:43:22.090Z,98905.81
2023-03-06T20:48:52.642Z,98902.31
2023-03-06T20:54:21.566Z,98906.00
2023-03-06T20:59:49.146Z,98901.81
2023-03-06T21:05:17.187Z,98897.25
2023-03-06T21:10:46.919Z,98903.72
2023-03-06T21:16:19.450Z,98904.44
2023-03-06T21:21:46.850Z,98902.09
2023-03-06T21:27:14.051Z,98901.25
2023-03-06T21:32:42.350Z,98898.56
2023-03-06T21:38:10.538Z,98897.72
2023-03-06T21:43:38.568Z,98900.38
2023-03-06T21:49:06.258Z,98897.06
2023-03-06T21:54:34.034Z,98896.31
2023-03-06T22:00:01.111Z,98899.41
2023-03-06T22:05:29.923Z,98896.91
2023-03-06T22:10:57.166Z,98887.03
2023-03-06T22:16:24.506Z,98892.16
2023-03-06T22:21:52.443Z,98891.09
2023-03-06T22:27:20.220Z,98888.22
2023-03-06T22:32:50.275Z,98885.16
2023-03-06T22:38:19.354Z,98887.19
2023-03-06T22:43:47.478Z,98883.06
2023-03-06T22:49:17.093Z,98879.88
2023-03-06T22:54:44.292Z,98890.13
2023-03-06T23:00:12.422Z,98880.00
2023-03-06T23:05:43.326Z,98883.53
2023-03-06T23:11:14.781Z,98873.63
2023-03-06T23:17:00.583Z,98877.34
2023-03-06T23:22:46.809Z,98885.75
2023-03-06T23:28:32.840Z,98874.16
2023-03-06T23:34:02.938Z,98880.69
2023-03-06T23:39:30.658Z,98890.34
2023-03-06T23:44:58.095Z,98891.50
2023-03-06T23:50:26.556Z,98884.47
2023-03-06T23:55:54.620Z,98884.66
